createdAt,value
2022-10-22T00:02:21.034Z,99942.75
2022-10-22T00:07:23.905Z,99921.38
2022-10-22T00:12:27.090Z,99935.91
2022-10-22T00:17:29.927Z,99932.53
2022-10-22T00:22:32.629Z,99926.66
2022-10-22T00:27:35.296Z,99924.91
2022-10-22T00:32:38.089Z,99908.81
2022-10-22T00:37:40.980Z,99905.50
2022-10-22T00:42:44.012Z,99867.94
2022-10-22T00:47:49.500Z,99890.50
2022-10-22T00:52:52.334Z,99882.16
2022-10-22T00:57:56.468Z,99862.69
2022-10-22T01:02:59.287Z,99864.66
2022-10-22T01:08:02.223Z,99872.09
2022-10-22T01:13:19.710Z,99859.00
2022-10-22T01:18:34.746Z,99852.81
2022-10-22T01:23:46.404Z,99842.03
2022-10-22T01:28:54.869Z,99832.84
2022-10-22T01:33:58.108Z,99824.31
2022-10-22T01:39:02.696Z,99816.84
2022-10-22T01:44:05.515Z,99821.47
2022-10-22T01:49:25.515Z,99814.81
2022-10-22T01:54:28.240Z,99815.03
2022-10-22T02:00:17.962Z,99797.22
2022-10-22T02:05:39.987Z,99778.72
2022-10-22T02:10:44.727Z,99790.06
2022-10-22T02:15:47.662Z,99793.16
2022-10-22T02:20:50.521Z,99785.78
2022-10-22T02:26:00.811Z,99771.59
2022-10-22T02:31:18.785Z,99759.22
2022-10-22T02:36:22.321Z,99753.72
2022-10-22T02:41:25.101Z,99755.81
2022-10-22T02:46:27.874Z,99762.06
2022-10-22T02:51:30.631Z,99758.63
2022-10-22T02:56:33.836Z,99766.75
2022-10-22T03:01:36.453Z,99776.28
2022-10-22T03:06:39.123Z,99762.72
2022-10-22T03:11:41.777Z,99768.91
2022-10-22T03:16:44.620Z,99759.69
2022-10-22T03:21:54.513Z,99767.59
2022-10-22T03:26:58.242Z,99764.97
2022-10-22T03:32:01.018Z,99763.09
2022-10-22T03:37:03.788Z,99716.75
2022-10-22T03:42:07.667Z,99739.16
2022-10-22T03:47:10.660Z,99713.75
2022-10-22T03:52:14.662Z,99703.06
2022-10-22T03:57:17.410Z,99695.81
2022-10-22T04:02:20.032Z,99695.38
2022-10-22T04:07:22.734Z,99687.25
2022-10-22T04:12:25.397Z,99681.47
2022-10-22T04:17:34.210Z,99675.59
2022-10-22T04:22:37.410Z,99663.69
2022-10-22T04:27:40.342Z,99647.59
2022-10-22T04:32:43.151Z,99623.63
2022-10-22T04:37:45.975Z,99643.53
2022-10-22T04:42:48.638Z,99635.91
2022-10-22T04:47:51.330Z,99630.78
2022-10-22T04:52:54.125Z,99619.72
2022-10-22T04:57:56.799Z,99624.94
2022-10-22T05:02:59.436Z,99625.06
2022-10-22T05:08:02.151Z,99617.41
2022-10-22T05:13:04.829Z,99618.34
2022-10-22T05:18:07.485Z,99625.13
2022-10-22T05:23:10.170Z,99612.22
2022-10-22T05:28:12.845Z,99582.28
2022-10-22T05:33:15.616Z,99608.03
2022-10-22T05:38:19.216Z,99608.03
2022-10-22T05:43:21.886Z,99590.09
2022-10-22T05:48:24.601Z,99579.06
2022-10-22T05:53:27.505Z,99569.75
2022-10-22T05:58:30.788Z,99556.06
2022-10-22T06:03:33.565Z,99538.97
2022-10-22T06:08:36.276Z,99540.59
2022-10-22T06:13:39.101Z,99532.03
2022-10-22T06:18:41.960Z,99511.53
2022-10-22T06:23:44.866Z,99516.69
2022-10-22T06:28:47.669Z,99513.22
2022-10-22T06:33:50.535Z,99489.28
2022-10-22T06:38:54.558Z,99478.19
2022-10-22T06:43:58.057Z,99479.91
2022-10-22T06:49:03.389Z,99486.72
2022-10-22T06:54:06.159Z,99485.88
2022-10-22T06:59:08.856Z,99485.00
2022-10-22T07:04:11.905Z,99478.19
2022-10-22T07:09:14.934Z,99456.78
2022-10-22T07:14:17.950Z,99467.84
2022-10-22T07:19:20.593Z,99455.84
2022-10-22T07:24:23.513Z,99453.25
2022-10-22T07:29:26.286Z,99445.63
2022-10-22T07:34:28.997Z,99426.84
2022-10-22T07:39:31.560Z,99440.53
2022-10-22T07:44:34.241Z,99448.25
2022-10-22T07:49:36.938Z,99448.31
2022-10-22T07:54:39.737Z,99444.00
2022-10-22T07:59:42.440Z,99431.19
2022-10-22T08:04:45.085Z,99465.41
2022-10-22T08:09:47.802Z,99464.56
2022-10-22T08:14:50.549Z,99442.31
2022-10-22T08:19:53.255Z,99430.28
2022-10-22T08:24:55.994Z,99406.25
2022-10-22T08:29:58.781Z,99400.94
2022-10-22T08:35:01.526Z,99405.16
2022-10-22T08:40:05.508Z,99391.53
2022-10-22T08:45:19.151Z,99398.50
2022-10-22T08:50:41.675Z,99413.06
2022-10-22T08:55:45.094Z,99384.84
2022-10-22T09:00:55.515Z,99402.84
2022-10-22T09:06:23.232Z,99390.88
2022-10-22T09:11:31.523Z,99390.94
2022-10-22T09:16:39.990Z,99394.44
2022-10-22T09:21:57.839Z,99385.09
2022-10-22T09:27:00.756Z,99399.59
2022-10-22T09:32:03.481Z,99403.03
2022-10-22T09:37:08.521Z,99397.91
2022-10-22T09:42:13.728Z,99378.28
2022-10-22T09:48:00.447Z,99384.25
2022-10-22T09:53:02.505Z,99399.66
2022-10-22T09:58:05.353Z,99391.97
2022-10-22T10:03:13.421Z,99399.66
2022-10-22T10:08:17.181Z,99356.94
2022-10-22T10:13:41.484Z,99384.25
2022-10-22T10:19:12.046Z,99382.56
2022-10-22T10:24:21.759Z,99397.94
2022-10-22T10:30:01.851Z,99384.25
2022-10-22T10:35:27.182Z,99354.38
2022-10-22T10:40:41.630Z,99341.56
2022-10-22T10:45:55.801Z,99343.28
2022-10-22T10:51:25.080Z,99354.34
2022-10-22T10:56:42.137Z,99346.63
2022-10-22T11:02:10.782Z,99342.34
2022-10-22T11:07:34.191Z,99367.09
2022-10-22T11:12:43.074Z,99377.25
2022-10-22T11:17:47.287Z,99370.44
2022-10-22T11:23:18.085Z,99366.16
2022-10-22T11:28:42.445Z,99380.63
2022-10-22T11:34:31.918Z,99373.78
2022-10-22T11:39:54.127Z,99369.50
2022-10-22T11:45:01.194Z,99371.19
2022-10-22T11:50:26.626Z,99351.44
2022-10-22T11:55:46.851Z,99380.50
2022-10-22T12:00:50.386Z,99379.59
2022-10-22T12:06:16.010Z,99380.44
2022-10-22T12:11:38.323Z,99370.22
2022-10-22T12:16:57.809Z,99371.91
2022-10-22T12:22:20.264Z,99371.91
2022-10-22T12:27:25.870Z,99357.38
2022-10-22T12:32:41.592Z,99356.53
2022-10-22T12:37:44.857Z,99329.22
2022-10-22T12:42:52.730Z,99327.53
2022-10-22T12:48:00.357Z,99292.50
2022-10-22T12:53:02.923Z,99308.75
2022-10-22T12:58:07.270Z,99294.25
2022-10-22T13:03:28.181Z,99288.25
2022-10-22T13:08:30.943Z,99266.09
2022-10-22T13:13:39.469Z,99266.00
2022-10-22T13:18:42.536Z,99244.69
2022-10-22T13:23:53.826Z,99224.22
2022-10-22T13:28:57.782Z,99234.47
2022-10-22T13:34:09.954Z,99220.00
2022-10-22T13:39:20.035Z,99215.72
2022-10-22T13:44:22.894Z,99216.63
2022-10-22T13:49:25.593Z,99192.75
2022-10-22T13:54:28.257Z,99169.66
2022-10-22T13:59:30.899Z,99178.19
2022-10-22T14:04:34.673Z,99147.50
2022-10-22T14:09:37.336Z,99139.06
2022-10-22T14:14:39.974Z,99110.06
2022-10-22T14:19:45.179Z,99113.56
2022-10-22T14:24:48.076Z,99103.31
2022-10-22T14:29:51.135Z,99099.94
2022-10-22T14:34:53.882Z,99083.78
2022-10-22T14:40:01.947Z,99095.69
2022-10-22T14:45:06.821Z,99059.91
2022-10-22T14:50:10.260Z,99051.44
2022-10-22T14:55:14.921Z,99049.72
2022-10-22T15:00:18.986Z,99051.41
2022-10-22T15:05:22.150Z,99048.84
2022-10-22T15:10:24.955Z,99036.06
2022-10-22T15:15:31.627Z,99021.59
2022-10-22T15:20:40.618Z,99009.69
2022-10-22T15:25:44.548Z,99002.84
2022-10-22T15:30:56.462Z,99013.03
2022-10-22T15:35:59.357Z,99007.09
2022-10-22T15:41:07.570Z,99003.66
2022-10-22T15:46:18.316Z,99004.44
2022-10-22T15:51:21.708Z,99006.97
2022-10-22T15:56:25.635Z,99009.47
2022-10-22T16:01:28.618Z,99002.56
2022-10-22T16:06:37.272Z,99001.84
2022-10-22T16:11:40.911Z,98998.44
2022-10-22T16:16:45.938Z,98994.16
2022-10-22T16:21:53.028Z,98998.34
2022-10-22T16:26:56.008Z,98977.91
2022-10-22T16:31:58.711Z,98942.88
2022-10-22T16:37:01.414Z,98942.81
2022-10-22T16:42:04.284Z,98953.03
2022-10-22T16:47:07.019Z,98934.31
2022-10-22T16:52:09.665Z,98920.66
2022-10-22T16:57:12.706Z,98922.31
2022-10-22T17:02:15.450Z,98912.13
2022-10-22T17:07:18.093Z,98902.75
2022-10-22T17:12:20.781Z,98895.91
2022-10-22T17:17:23.455Z,98873.81
2022-10-22T17:22:26.563Z,98884.84
2022-10-22T17:27:29.235Z,98870.38
2022-10-22T17:32:31.982Z,98851.66
2022-10-22T17:37:35.380Z,98840.59
2022-10-22T17:42:38.134Z,98814.22
2022-10-22T17:47:41.216Z,98791.31
2022-10-22T17:52:44.357Z,98783.63
2022-10-22T17:57:47.145Z,98782.84
2022-10-22T18:02:49.799Z,98767.59
2022-10-22T18:07:55.887Z,98737.88
2022-10-22T18:12:58.579Z,98709.84
2022-10-22T18:18:01.231Z,98675.88
2022-10-22T18:23:04.064Z,98648.72
2022-10-22T18:28:06.822Z,98630.03
2022-10-22T18:33:12.208Z,98598.63
2022-10-22T18:38:14.914Z,98591.03
2022-10-22T18:43:18.264Z,98564.72
2022-10-22T18:48:23.294Z,98544.38
2022-10-22T18:53:26.036Z,98534.19
2022-10-22T18:58:28.720Z,98525.69
2022-10-22T19:03:31.389Z,98519.75
2022-10-22T19:08:35.353Z,98518.91
2022-10-22T19:13:38.196Z,98490.91
2022-10-22T19:18:40.895Z,98483.25
2022-10-22T19:28:54.797Z,98455.22
2022-10-22T19:33:58.266Z,98463.72
2022-10-22T19:39:02.169Z,98440.78
2022-10-22T19:44:05.150Z,98424.66
2022-10-22T19:49:07.724Z,98411.91
2022-10-22T19:54:18.810Z,98392.38
2022-10-22T19:59:23.057Z,98372.00
2022-10-22T20:04:28.338Z,98371.16
2022-10-22T20:09:31.063Z,98347.38
2022-10-22T20:14:34.081Z,98328.69
2022-10-22T20:19:36.806Z,98296.44
2022-10-22T20:24:39.575Z,98269.25
2022-10-22T20:29:42.285Z,98266.69
2022-10-22T20:34:44.948Z,98247.13
2022-10-22T20:39:50.161Z,98230.09
2022-10-22T20:44:52.856Z,98223.28
2022-10-22T20:49:55.479Z,98207.13
2022-10-22T20:54:58.155Z,98211.38
2022-10-22T21:00:00.931Z,98184.19
2022-10-22T21:05:03.874Z,98183.31
2022-10-22T21:10:06.924Z,98173.09
2022-10-22T21:15:12.601Z,98152.69
2022-10-22T21:20:17.132Z,98139.13
2022-10-22T21:25:21.416Z,98124.63
2022-10-22T21:30:24.163Z,98105.06
2022-10-22T21:35:26.803Z,98102.47
2022-10-22T21:40:29.832Z,98061.78
2022-10-22T21:45:32.396Z,98073.53
2022-10-22T21:50:35.112Z,98042.22
2022-10-22T21:55:39.662Z,98034.56
2022-10-22T22:00:42.362Z,98023.41
2022-10-22T22:05:45.053Z,98008.94
2022-10-22T22:10:47.797Z,97997.00
2022-10-22T22:15:50.483Z,97991.97
2022-10-22T22:20:53.203Z,97955.50
2022-10-22T22:26:00.291Z,97966.41
2022-10-22T22:31:03.385Z,97946.84
2022-10-22T22:36:06.390Z,97947.66
2022-10-22T22:41:09.881Z,97927.22
2022-10-22T22:46:13.050Z,97915.41
2022-10-22T22:51:16.439Z,97889.09
2022-10-22T22:56:22.221Z,97893.25
2022-10-22T23:01:30.451Z,97880.50
2022-10-22T23:06:36.695Z,97871.19
2022-10-22T23:11:40.107Z,97860.97
2022-10-22T23:16:46.559Z,97848.19
2022-10-22T23:21:51.689Z,97842.16
2022-10-22T23:26:55.977Z,97831.03
2022-10-22T23:32:03.489Z,97801.25
2022-10-22T23:37:06.680Z,97791.81
2022-10-22T23:42:09.457Z,97780.72
2022-10-22T23:47:12.169Z,97770.47
2022-10-22T23:52:14.823Z,97775.44
2022-10-22T23:57:17.506Z,97758.56
